Time;durP1;ratioP1;P1;durP2;ratioP2;P2;SDS_P1;SDS_P2;PMS_P1;PMS_P2;Temp;Humidity;BMP_temperature;BMP_pressure;BME280_temperature;BME280_humidity;BME280_pressure;Samples;Min_cycle;Max_cycle;Signal;HPM_P1;HPM_P2
2021/04/10 00:02:06;;;;;;;14.13;10.48;;;;;;;7.38;89.35;100345.69;5192236;28;20041;-80
2021/04/10 00:04:37;;;;;;;16.75;10.55;;;;;;;7.46;89.18;100351.50;5186594;28;20503;-80
2021/04/10 00:07:07;;;;;;;17.30;11.07;;;;;;;7.39;89.92;100345.63;5191804;28;20048;-80
2021/04/10 00:09:38;;;;;;;18.98;11.77;;;;;;;7.31;90.28;100352.78;5191390;28;20041;-80
2021/04/10 00:12:08;;;;;;;17.63;11.18;;;;;;;7.27;90.12;100352.06;5192417;28;20467;-80
2021/04/10 00:14:39;;;;;;;16.73;11.18;;;;;;;7.12;91.15;100349.84;5190291;28;20033;-80
2021/04/10 00:17:09;;;;;;;19.15;11.35;;;;;;;7.22;91.04;100351.28;5190942;28;20025;-80
2021/04/10 00:19:40;;;;;;;18.48;11.50;;;;;;;7.10;92.06;100347.25;5191470;28;20048;-80
2021/04/10 00:22:11;;;;;;;17.35;11.70;;;;;;;6.94;93.26;100350.28;5191789;28;20104;-80
2021/04/10 00:24:41;;;;;;;14.93;11.48;;;;;;;7.04;92.97;100349.16;5191197;28;20035;-80
2021/04/10 00:27:11;;;;;;;18.15;11.63;;;;;;;6.96;93.69;100343.31;5192722;28;20038;-80
2021/04/10 00:29:41;;;;;;;15.85;10.98;;;;;;;7.18;91.73;100347.06;5191471;28;20435;-80
2021/04/10 00:32:12;;;;;;;15.98;11.43;;;;;;;7.28;91.39;100340.75;5170598;28;20115;-80
2021/04/10 00:34:42;;;;;;;16.55;11.65;;;;;;;7.13;91.81;100335.94;5190297;28;20045;-80
2021/04/10 00:37:12;;;;;;;18.38;12.30;;;;;;;7.12;92.36;100340.28;5192438;28;20048;-80
2021/04/10 00:39:42;;;;;;;20.17;11.60;;;;;;;7.08;92.60;100343.84;5191038;28;20706;-80
2021/04/10 00:42:13;;;;;;;17.30;10.95;;;;;;;7.22;92.21;100340.91;5192386;28;20029;-80
2021/04/10 00:44:43;;;;;;;16.17;11.13;;;;;;;7.45;90.40;100335.06;5191923;28;20046;-80
2021/04/10 00:47:13;;;;;;;14.70;10.68;;;;;;;7.56;90.34;100338.22;5190848;28;20048;-80
2021/04/10 00:49:44;;;;;;;16.55;11.63;;;;;;;7.55;89.42;100333.91;5191284;28;20033;-80
2021/04/10 00:52:17;;;;;;;17.85;11.32;;;;;;;7.62;90.48;100339.81;5191776;28;20192;-80
2021/04/10 00:54:49;;;;;;;15.95;11.48;;;;;;;7.38;90.05;100335.28;5191985;28;20679;-80
2021/04/10 00:57:21;;;;;;;17.02;11.73;;;;;;;7.39;90.22;100336.97;5194645;28;20041;-80
2021/04/10 00:59:51;;;;;;;18.80;11.55;;;;;;;7.47;90.41;100341.09;5196165;28;20033;-80
2021/04/10 01:02:22;;;;;;;17.25;11.25;;;;;;;7.38;90.85;100333.50;5196613;28;20383;-80
2021/04/10 01:04:53;;;;;;;17.48;11.80;;;;;;;7.54;90.70;100332.22;5196578;28;20068;-80
2021/04/10 01:07:23;;;;;;;16.15;11.43;;;;;;;7.30;90.75;100325.09;5179434;28;20021;-80
2021/04/10 01:09:54;;;;;;;17.63;11.55;;;;;;;7.35;90.87;100327.56;5175775;28;20037;-80
2021/04/10 01:12:42;;;;;;;20.88;11.18;;;;;;;7.48;90.68;100326.31;5195518;28;20033;-80
2021/04/10 01:15:28;;;;;;;17.55;11.48;;;;;;;7.48;90.29;100324.59;5196742;28;20045;-80
2021/04/10 01:18:04;;;;;;;15.27;10.73;;;;;;;7.38;91.46;100324.88;5196796;28;20037;-80
2021/04/10 01:20:46;;;;;;;16.15;11.43;;;;;;;7.25;91.43;100323.50;5195900;28;20036;-78
2021/04/10 01:23:50;;;;;;;15.10;10.77;;;;;;;7.18;92.02;100321.09;5193403;28;20040;-78
2021/04/10 01:26:38;;;;;;;17.50;12.40;;;;;;;7.13;92.43;100320.38;5196602;28;20541;-78
2021/04/10 01:29:11;;;;;;;17.67;10.95;;;;;;;7.22;91.26;100316.63;5197439;28;20717;-79
2021/04/10 01:31:48;;;;;;;18.40;11.40;;;;;;;7.31;90.60;100316.38;5196154;28;20064;-78
2021/04/10 01:34:27;;;;;;;18.08;11.18;;;;;;;7.24;91.30;100314.00;5197595;28;20048;-78
2021/04/10 01:37:06;;;;;;;17.65;10.93;;;;;;;7.26;91.55;100311.38;5197252;28;20652;-78
2021/04/10 01:39:37;;;;;;;17.65;11.60;;;;;;;7.16;91.97;100315.06;5198888;28;20466;-78
2021/04/10 01:42:09;;;;;;;18.98;12.13;;;;;;;7.26;90.70;100311.38;5197581;28;20557;-78
2021/04/10 01:44:41;;;;;;;16.75;11.45;;;;;;;7.27;91.81;100308.72;5198747;28;20044;-78
2021/04/10 01:47:16;;;;;;;21.35;11.63;;;;;;;7.28;91.95;100313.88;5197707;28;20057;-78
2021/04/10 01:49:49;;;;;;;17.65;12.32;;;;;;;7.22;91.87;100316.63;5198281;28;20037;-78
2021/04/10 01:52:21;;;;;;;19.13;12.50;;;;;;;7.30;92.19;100314.69;5198015;28;20045;-78
2021/04/10 01:54:51;;;;;;;18.05;11.75;;;;;;;7.18;91.24;100319.34;5197065;28;20555;-78
2021/04/10 01:57:22;;;;;;;20.55;13.35;;;;;;;7.20;93.43;100314.09;5197254;28;20041;-78
2021/04/10 01:59:54;;;;;;;20.33;12.95;;;;;;;7.00;93.66;100313.75;5199004;28;20036;-78
2021/04/10 02:02:26;;;;;;;20.05;13.23;;;;;;;7.06;93.72;100314.47;5176394;28;20025;-78
2021/04/10 02:04:57;;;;;;;18.73;13.27;;;;;;;6.79;95.47;100312.53;5195832;28;20531;-78
2021/04/10 02:07:28;;;;;;;20.45;13.93;;;;;;;6.58;96.48;100317.44;5196252;28;20530;-78
2021/04/10 02:10:03;;;;;;;22.95;14.50;;;;;;;6.70;96.96;100324.91;5193755;28;20063;-78
2021/04/10 02:12:34;;;;;;;19.25;14.32;;;;;;;7.06;94.98;100318.78;5193790;28;20116;-78
2021/04/10 02:15:06;;;;;;;19.33;13.40;;;;;;;7.16;93.16;100322.88;5195176;28;20044;-78
2021/04/10 02:17:36;;;;;;;16.98;13.07;;;;;;;7.04;93.45;100325.78;5194869;28;21349;-78
2021/04/10 02:20:12;;;;;;;20.25;13.50;;;;;;;7.10;94.75;100330.84;5193050;28;20045;-78
2021/04/10 02:22:49;;;;;;;20.05;13.23;;;;;;;7.41;93.65;100336.06;5193594;28;20152;-78
2021/04/10 02:25:22;;;;;;;21.30;13.68;;;;;;;7.15;94.26;100328.97;5193943;28;20060;-78
2021/04/10 02:27:56;;;;;;;20.88;13.65;;;;;;;7.16;93.60;100335.88;5195190;28;20147;-78
2021/04/10 02:30:26;;;;;;;20.35;14.10;;;;;;;7.30;94.05;100343.28;5194229;28;20548;-78
2021/04/10 02:33:02;;;;;;;20.85;13.95;;;;;;;7.30;93.09;100332.88;5192606;28;20049;-79
2021/04/10 02:35:54;;;;;;;22.25;13.63;;;;;;;7.37;93.23;100336.16;5193324;28;20126;-78
2021/04/10 02:38:31;;;;;;;21.10;13.07;;;;;;;7.43;92.50;100342.06;5193272;28;20068;-78
2021/04/10 02:41:10;;;;;;;21.40;12.95;;;;;;;7.40;92.08;100346.47;5193384;28;20529;-78
2021/04/10 02:43:48;;;;;;;17.58;13.07;;;;;;;7.34;92.48;100347.50;5194282;28;20043;-78
2021/04/10 02:46:20;;;;;;;18.17;12.27;;;;;;;7.28;93.28;100358.06;5193182;28;20120;-78
2021/04/10 02:49:03;;;;;;;18.10;12.70;;;;;;;7.38;93.96;100358.66;5193021;28;20503;-78
2021/04/10 02:51:41;;;;;;;19.50;13.85;;;;;;;7.51;94.08;100362.66;5192366;28;20033;-79
2021/04/10 02:54:16;;;;;;;22.38;13.60;;;;;;;7.31;94.57;100363.16;5192768;28;20397;-78
2021/04/10 02:56:51;;;;;;;18.27;13.30;;;;;;;7.35;95.77;100370.00;5194453;28;20036;-79
2021/04/10 02:59:23;;;;;;;21.08;13.90;;;;;;;7.28;96.07;100371.06;5194209;28;20478;-78
2021/04/10 03:01:57;;;;;;;22.45;14.27;;;;;;;7.30;96.55;100366.66;5193111;28;20039;-78
2021/04/10 03:04:28;;;;;;;24.42;13.88;;;;;;;7.29;96.83;100372.75;5192597;28;20037;-78
2021/04/10 03:06:59;;;;;;;23.35;14.93;;;;;;;7.03;97.18;100374.31;5192785;28;20674;-78
2021/04/10 03:09:29;;;;;;;29.52;15.85;;;;;;;7.14;98.52;100374.03;5193357;28;20044;-78
2021/04/10 03:12:00;;;;;;;23.63;16.17;;;;;;;7.01;99.53;100375.22;5192233;28;20037;-78
2021/04/10 03:14:31;;;;;;;22.92;16.27;;;;;;;7.00;99.87;100369.19;5191589;28;20045;-78
2021/04/10 03:17:02;;;;;;;28.70;17.30;;;;;;;7.00;99.83;100378.72;5192370;28;20037;-78
2021/04/10 03:19:37;;;;;;;26.55;16.27;;;;;;;7.01;100.00;100368.28;5197049;28;20041;-79
2021/04/10 03:22:09;;;;;;;25.77;16.55;;;;;;;6.77;100.00;100375.81;5196334;28;20113;-79
2021/04/10 03:24:39;;;;;;;28.08;17.20;;;;;;;6.75;100.00;100385.38;5196589;28;20087;-79
2021/04/10 03:27:11;;;;;;;27.80;17.33;;;;;;;6.66;100.00;100388.19;5197294;28;20057;-79
2021/04/10 03:29:43;;;;;;;29.50;17.27;;;;;;;6.57;100.00;100385.81;5197253;28;20040;-79
2021/04/10 03:32:14;;;;;;;24.80;16.88;;;;;;;6.68;100.00;100389.88;5198354;28;20066;-79
2021/04/10 03:34:45;;;;;;;24.73;17.35;;;;;;;6.84;100.00;100386.03;5196514;28;20052;-79
2021/04/10 03:37:15;;;;;;;28.95;17.35;;;;;;;6.79;100.00;100387.03;5196825;28;20488;-79
2021/04/10 03:39:46;;;;;;;27.27;16.77;;;;;;;6.68;100.00;100383.81;5198554;28;20053;-79
2021/04/10 03:42:21;;;;;;;28.15;18.10;;;;;;;6.40;100.00;100391.34;5195559;28;20059;-79
2021/04/10 03:44:51;;;;;;;27.65;18.80;;;;;;;6.43;100.00;100395.66;5198654;28;20025;-79
2021/04/10 03:47:21;;;;;;;27.58;17.30;;;;;;;6.59;100.00;100394.41;5196201;28;20064;-79
2021/04/10 03:49:52;;;;;;;33.00;18.63;;;;;;;6.75;100.00;100401.81;5198246;28;20187;-79
2021/04/10 03:52:22;;;;;;;26.80;17.90;;;;;;;6.92;100.00;100398.84;5195785;28;20045;-79
2021/04/10 03:54:52;;;;;;;27.17;18.15;;;;;;;6.85;100.00;100398.13;5196625;28;20041;-79
2021/04/10 03:57:23;;;;;;;33.20;18.23;;;;;;;6.83;100.00;100401.63;5195959;28;20396;-79
2021/04/10 03:59:53;;;;;;;29.40;17.85;;;;;;;6.67;100.00;100401.16;5197372;28;20048;-79
2021/04/10 04:02:23;;;;;;;29.25;18.85;;;;;;;6.47;100.00;100399.88;5174839;28;20163;-79
2021/04/10 04:04:54;;;;;;;27.67;17.42;;;;;;;6.55;100.00;100392.75;5174368;28;20037;-79
2021/04/10 04:07:24;;;;;;;27.45;18.58;;;;;;;6.51;100.00;100401.50;5196364;28;20049;-79
2021/04/10 04:09:54;;;;;;;27.20;18.38;;;;;;;6.44;100.00;100405.97;5180646;28;20030;-79
2021/04/10 04:12:25;;;;;;;27.33;17.95;;;;;;;6.63;100.00;100403.84;5196603;28;20040;-79
2021/04/10 04:14:55;;;;;;;27.27;17.85;;;;;;;6.60;100.00;100401.31;5197145;28;20033;-79
2021/04/10 04:17:25;;;;;;;25.42;17.42;;;;;;;6.66;100.00;100406.34;5196706;28;20051;-79
2021/04/10 04:19:55;;;;;;;31.92;17.75;;;;;;;6.50;100.00;100405.84;5198222;28;20034;-79
2021/04/10 04:22:26;;;;;;;28.45;18.83;;;;;;;6.59;100.00;100410.00;5198548;28;20036;-79
2021/04/10 04:24:57;;;;;;;28.50;17.58;;;;;;;6.73;100.00;100420.94;5192525;28;20407;-78
2021/04/10 04:27:27;;;;;;;29.63;17.17;;;;;;;6.45;100.00;100419.81;5192763;28;20037;-78
2021/04/10 04:29:57;;;;;;;26.45;17.88;;;;;;;6.58;100.00;100416.91;5192895;28;20186;-78
2021/04/10 04:32:28;;;;;;;27.83;17.83;;;;;;;6.71;100.00;100415.75;5194125;28;20106;-77
2021/04/10 04:34:58;;;;;;;24.40;17.58;;;;;;;6.70;100.00;100423.56;5192496;28;20060;-78
2021/04/10 04:37:28;;;;;;;30.98;18.35;;;;;;;6.63;100.00;100416.81;5192437;28;20112;-78
2021/04/10 04:39:59;;;;;;;26.33;18.17;;;;;;;6.54;100.00;100419.59;5190764;28;20119;-76
2021/04/10 04:42:29;;;;;;;27.55;17.30;;;;;;;6.63;100.00;100416.81;5192088;28;20651;-77
2021/04/10 04:44:59;;;;;;;25.70;17.55;;;;;;;6.51;100.00;100417.06;5189505;28;20036;-78
2021/04/10 04:47:29;;;;;;;25.23;17.23;;;;;;;6.65;100.00;100423.69;5175320;28;20037;-78
2021/04/10 04:50:00;;;;;;;29.05;18.15;;;;;;;6.63;100.00;100429.81;5191669;28;20037;-79
2021/04/10 04:52:31;;;;;;;26.90;18.02;;;;;;;6.65;100.00;100426.28;5193583;28;20494;-78
2021/04/10 04:55:02;;;;;;;26.25;16.98;;;;;;;6.71;100.00;100430.47;5191187;28;20041;-78
2021/04/10 04:57:32;;;;;;;27.05;17.70;;;;;;;6.54;100.00;100442.97;5191504;28;20552;-77
2021/04/10 05:00:03;;;;;;;30.02;18.48;;;;;;;6.59;100.00;100447.19;5192831;28;20048;-77
2021/04/10 05:02:34;;;;;;;28.15;17.98;;;;;;;6.67;100.00;100450.47;5196060;28;20056;-78
2021/04/10 05:05:05;;;;;;;27.38;17.40;;;;;;;6.78;100.00;100447.63;5194453;28;20029;-78
2021/04/10 05:07:35;;;;;;;29.77;17.45;;;;;;;6.63;100.00;100453.16;5194748;28;20078;-77
2021/04/10 05:10:06;;;;;;;26.85;17.83;;;;;;;6.61;100.00;100450.59;5196796;28;20476;-79
2021/04/10 05:12:36;;;;;;;27.83;17.70;;;;;;;6.50;100.00;100446.53;5195541;28;20125;-78
2021/04/10 05:15:07;;;;;;;28.55;17.92;;;;;;;6.45;100.00;100445.78;5192811;28;20053;-78
2021/04/10 05:17:38;;;;;;;29.85;18.15;;;;;;;6.56;100.00;100446.41;5176376;28;20033;-79
2021/04/10 05:20:08;;;;;;;28.20;17.77;;;;;;;6.51;100.00;100454.28;5194446;28;20053;-76
2021/04/10 05:22:39;;;;;;;23.77;16.00;;;;;;;6.59;100.00;100452.38;5196473;28;20171;-76
2021/04/10 05:25:09;;;;;;;25.88;17.35;;;;;;;6.72;100.00;100458.16;5194342;28;20087;-76
2021/04/10 05:27:40;;;;;;;25.48;16.10;;;;;;;6.70;100.00;100455.59;5194646;28;20099;-78
2021/04/10 05:30:10;;;;;;;25.95;16.70;;;;;;;6.48;100.00;100459.56;5195526;28;20061;-78
2021/04/10 05:32:41;;;;;;;25.88;16.45;;;;;;;6.51;100.00;100469.00;5195784;28;20037;-78
2021/04/10 05:35:13;;;;;;;28.98;17.05;;;;;;;6.67;100.00;100470.38;5198587;28;20045;-78
2021/04/10 05:37:44;;;;;;;28.98;16.95;;;;;;;6.41;100.00;100473.53;5198818;28;20021;-79
2021/04/10 05:40:14;;;;;;;28.27;16.88;;;;;;;6.56;100.00;100477.56;5200577;28;20040;-79
2021/04/10 05:42:44;;;;;;;27.20;16.77;;;;;;;6.44;100.00;100483.00;5201708;28;20029;-79
2021/04/10 05:45:15;;;;;;;26.48;17.20;;;;;;;6.40;100.00;100486.53;5197936;28;20037;-79
2021/04/10 05:47:45;;;;;;;29.10;17.27;;;;;;;6.46;100.00;100489.84;5199726;28;20045;-77
2021/04/10 05:50:15;;;;;;;28.40;16.58;;;;;;;6.69;100.00;100497.16;5197580;28;20029;-77
2021/04/10 05:52:47;;;;;;;27.75;16.67;;;;;;;6.44;100.00;100503.75;5197285;28;20033;-79
2021/04/10 05:55:17;;;;;;;27.30;15.85;;;;;;;6.34;100.00;100503.09;5199836;28;20033;-79
2021/04/10 05:57:47;;;;;;;28.00;16.63;;;;;;;6.38;100.00;100503.88;5198146;28;20561;-77
2021/04/10 06:00:18;;;;;;;26.63;16.33;;;;;;;6.37;100.00;100508.22;5199488;28;20041;-76
2021/04/10 06:02:55;;;;;;;28.30;15.95;;;;;;;6.40;100.00;100512.50;5198033;28;20044;-80
2021/04/10 06:05:26;;;;;;;25.85;15.48;;;;;;;6.41;100.00;100509.03;5200070;28;20037;-81
2021/04/10 06:07:56;;;;;;;23.90;14.52;;;;;;;6.51;100.00;100502.75;5198096;28;20115;-81
2021/04/10 06:10:27;;;;;;;26.70;13.50;;;;;;;6.27;100.00;100511.03;5199300;28;20044;-81
2021/04/10 06:12:57;;;;;;;22.20;14.43;;;;;;;6.22;100.00;100515.47;5197084;28;20037;-81
2021/04/10 06:15:27;;;;;;;23.45;13.93;;;;;;;6.25;100.00;100523.19;5197647;28;20037;-82
2021/04/10 06:17:57;;;;;;;23.30;13.75;;;;;;;6.26;100.00;100520.53;5196890;28;20141;-81
2021/04/10 06:20:28;;;;;;;25.20;14.00;;;;;;;6.29;100.00;100527.41;5197770;28;20033;-79
2021/04/10 06:22:58;;;;;;;25.83;13.68;;;;;;;6.67;100.00;100522.31;5197810;28;20029;-78
2021/04/10 06:25:29;;;;;;;23.58;13.23;;;;;;;6.71;100.00;100526.53;5199391;28;20041;-82
2021/04/10 06:28:03;;;;;;;22.35;12.13;;;;;;;6.88;100.00;100533.13;5198434;28;20105;-80
2021/04/10 06:30:34;;;;;;;28.13;12.67;;;;;;;6.75;100.00;100544.63;5199513;28;20032;-77
2021/04/10 06:33:04;;;;;;;20.75;11.73;;;;;;;6.96;100.00;100545.94;5199002;28;20034;-80
2021/04/10 06:35:34;;;;;;;21.50;12.85;;;;;;;6.95;100.00;100552.03;5199650;28;20767;-81
2021/04/10 06:38:05;;;;;;;20.23;12.63;;;;;;;6.88;100.00;100563.41;5198181;28;20037;-80
2021/04/10 06:40:36;;;;;;;21.58;13.00;;;;;;;6.98;100.00;100558.03;5198331;28;20078;-80
2021/04/10 06:43:06;;;;;;;20.25;12.30;;;;;;;6.97;100.00;100566.66;5199932;28;20033;-81
2021/04/10 06:45:37;;;;;;;21.52;12.57;;;;;;;6.81;100.00;100573.09;5197490;28;20040;-80
2021/04/10 06:48:14;;;;;;;25.20;12.27;;;;;;;6.75;100.00;100561.97;5200581;28;20032;-79
2021/04/10 06:50:44;;;;;;;25.98;13.65;;;;;;;6.28;100.00;100583.63;5198029;28;20025;-81
2021/04/10 06:53:16;;;;;;;21.55;12.18;;;;;;;6.21;100.00;100573.38;5198751;28;20178;-78
2021/04/10 06:55:52;;;;;;;22.05;11.85;;;;;;;6.16;100.00;100568.31;5198782;28;20029;-78
2021/04/10 06:58:35;;;;;;;19.70;11.63;;;;;;;6.52;100.00;100569.34;5199761;28;20090;-83
2021/04/10 07:01:06;;;;;;;26.35;10.27;;;;;;;6.67;100.00;100569.91;5198469;28;20087;-79
2021/04/10 07:03:36;;;;;;;21.65;9.93;;;;;;;6.63;100.00;100572.59;5197344;28;20450;-81
2021/04/10 07:06:09;;;;;;;19.45;9.07;;;;;;;6.49;100.00;100584.97;5199466;28;20044;-82
2021/04/10 07:08:40;;;;;;;22.33;9.38;;;;;;;6.35;100.00;100584.38;5199548;28;20805;-82
2021/04/10 07:11:12;;;;;;;22.13;9.82;;;;;;;6.38;100.00;100576.53;5200633;28;20087;-81
2021/04/10 07:13:43;;;;;;;22.63;8.77;;;;;;;6.25;100.00;100580.25;5199120;28;20446;-80
2021/04/10 07:16:13;;;;;;;23.83;7.97;;;;;;;6.21;100.00;100575.97;5197341;28;20040;-82
2021/04/10 07:18:45;;;;;;;20.88;8.65;;;;;;;6.16;100.00;100578.69;5199134;28;20034;-82
2021/04/10 07:21:26;;;;;;;22.25;8.20;;;;;;;5.96;100.00;100579.91;5199754;28;20034;-82
2021/04/10 07:23:57;;;;;;;15.82;7.75;;;;;;;5.96;100.00;100585.97;5198593;28;20277;-82
2021/04/10 07:26:51;;;;;;;20.85;8.07;;;;;;;5.95;100.00;100585.97;5198561;28;20779;-79
2021/04/10 07:29:32;;;;;;;20.67;7.63;;;;;;;6.19;100.00;100595.91;5200314;28;20025;-82
2021/04/10 07:32:33;;;;;;;18.10;6.78;;;;;;;6.21;100.00;100595.03;5198491;28;20029;-82
2021/04/10 07:35:06;;;;;;;16.13;7.07;;;;;;;6.43;100.00;100600.69;5187972;28;20071;-81
2021/04/10 07:37:47;;;;;;;21.52;7.03;;;;;;;6.50;100.00;100594.47;5198063;28;20036;-80
2021/04/10 07:40:24;;;;;;;15.82;6.65;;;;;;;6.25;100.00;100606.22;5195010;28;21195;-82
2021/04/10 07:43:00;;;;;;;16.50;6.88;;;;;;;6.40;100.00;100600.75;5198443;28;20041;-81
2021/04/10 07:45:33;;;;;;;16.95;7.32;;;;;;;6.50;100.00;100607.47;5196398;28;20037;-81
2021/04/10 07:48:13;;;;;;;19.13;7.30;;;;;;;6.38;100.00;100607.69;5197869;28;20037;-81
2021/04/10 07:50:45;;;;;;;17.33;7.80;;;;;;;6.44;100.00;100616.22;5198907;28;20379;-82
2021/04/10 07:53:29;;;;;;;20.27;7.20;;;;;;;6.49;100.00;100617.00;5198005;28;20063;-80
2021/04/10 07:56:00;;;;;;;16.10;7.15;;;;;;;6.45;100.00;100624.88;5199701;28;20808;-80
2021/04/10 07:58:33;;;;;;;18.85;7.18;;;;;;;6.43;100.00;100629.25;5198449;28;20196;-83
2021/04/10 08:01:09;;;;;;;17.50;7.55;;;;;;;6.16;100.00;100630.56;5197090;28;20078;-83
2021/04/10 08:03:40;;;;;;;19.20;7.53;;;;;;;6.44;100.00;100636.13;5198172;28;20029;-80
2021/04/10 08:06:13;;;;;;;20.67;7.60;;;;;;;6.28;100.00;100632.09;5198680;28;20034;-82
2021/04/10 08:08:56;;;;;;;18.08;7.40;;;;;;;6.33;100.00;100638.06;5197635;28;20410;-82
2021/04/10 08:11:42;;;;;;;21.63;7.30;;;;;;;6.36;100.00;100643.19;5196343;28;20034;-80
2021/04/10 08:14:14;;;;;;;20.77;6.97;;;;;;;6.38;100.00;100639.69;5197803;28;20047;-81
2021/04/10 08:16:52;;;;;;;22.85;7.38;;;;;;;6.26;100.00;100649.44;5197082;28;20029;-81
2021/04/10 08:19:32;;;;;;;22.33;8.05;;;;;;;6.03;100.00;100643.75;5197757;28;20141;-82
2021/04/10 08:22:03;;;;;;;20.65;7.93;;;;;;;6.07;100.00;100643.69;5180861;28;20028;-81
2021/04/10 08:24:41;;;;;;;27.38;7.43;;;;;;;5.83;100.00;100653.59;5197674;28;20028;-83
2021/04/10 08:27:13;;;;;;;20.33;7.00;;;;;;;6.02;100.00;100657.59;5196795;28;20033;-81
2021/04/10 08:29:44;;;;;;;20.45;7.03;;;;;;;6.04;100.00;100653.25;5180095;28;21310;-82
2021/04/10 08:32:15;;;;;;;21.58;6.75;;;;;;;5.85;100.00;100647.50;5197270;28;20032;-80
2021/04/10 08:34:45;;;;;;;18.20;7.43;;;;;;;6.01;100.00;100646.38;5196457;28;20037;-80
2021/04/10 08:37:16;;;;;;;25.85;7.47;;;;;;;6.32;100.00;100638.94;5201088;28;20033;-81
2021/04/10 08:39:48;;;;;;;23.50;6.60;;;;;;;6.51;100.00;100632.53;5202068;28;20060;-81
2021/04/10 08:42:20;;;;;;;20.25;6.55;;;;;;;6.69;100.00;100646.03;5200158;28;20089;-82
2021/04/10 08:44:51;;;;;;;22.80;7.03;;;;;;;6.98;99.65;100645.47;5203018;28;20079;-82
2021/04/10 08:47:22;;;;;;;17.75;5.85;;;;;;;6.96;97.21;100644.66;5201720;28;20103;-82
2021/04/10 08:49:54;;;;;;;17.75;5.72;;;;;;;7.27;97.71;100645.75;5200502;28;20031;-83
2021/04/10 08:52:32;;;;;;;21.95;6.78;;;;;;;7.08;98.45;100655.66;5200841;28;20040;-83
2021/04/10 08:55:05;;;;;;;20.50;6.43;;;;;;;7.10;98.14;100659.06;5200328;28;20036;-80
2021/04/10 08:57:38;;;;;;;25.55;6.28;;;;;;;7.24;97.90;100667.44;5202951;28;21480;-79
2021/04/10 09:00:20;;;;;;;21.48;7.38;;;;;;;6.98;97.69;100674.94;5200975;28;20038;-82
2021/04/10 09:02:54;;;;;;;21.45;6.57;;;;;;;7.05;96.11;100668.72;5200283;28;20030;-80
2021/04/10 09:05:45;;;;;;;24.20;7.15;;;;;;;7.13;97.89;100673.75;5187956;28;20040;-82
2021/04/10 09:08:42;;;;;;;24.60;7.45;;;;;;;6.91;97.29;100688.91;5197227;28;20036;-81
2021/04/10 09:11:20;;;;;;;25.98;7.32;;;;;;;6.59;98.38;100696.41;5193977;28;20041;-79
2021/04/10 09:13:52;;;;;;;22.90;7.70;;;;;;;6.52;99.26;100694.81;5196656;28;20033;-80
2021/04/10 09:16:29;;;;;;;23.65;8.30;;;;;;;6.79;100.00;100699.50;5196847;28;20029;-80
2021/04/10 09:18:59;;;;;;;23.88;8.70;;;;;;;7.02;99.55;100694.75;5195842;28;20037;-80
2021/04/10 09:21:36;;;;;;;23.05;8.88;;;;;;;6.71;98.90;100696.22;5197827;28;20510;-81
2021/04/10 09:24:17;;;;;;;22.40;8.40;;;;;;;6.75;99.47;100702.22;5197060;28;20112;-80
2021/04/10 09:27:20;;;;;;;23.35;9.82;;;;;;;6.92;98.97;100710.56;5195243;28;20037;-80
2021/04/10 09:29:58;;;;;;;27.25;9.30;;;;;;;6.87;97.45;100713.22;5198093;28;20056;-80
2021/04/10 09:32:38;;;;;;;25.48;8.85;;;;;;;7.15;96.06;100719.63;5176693;28;20172;-81
2021/04/10 09:35:15;;;;;;;31.73;8.98;;;;;;;7.03;97.45;100730.25;5195913;28;20825;-80
2021/04/10 09:37:50;;;;;;;30.25;9.38;;;;;;;6.98;98.43;100731.22;5194880;28;20049;-80
2021/04/10 09:40:42;;;;;;;27.70;8.25;;;;;;;7.06;96.25;100732.78;5197752;28;20033;-81
2021/04/10 09:43:14;;;;;;;22.27;8.60;;;;;;;7.05;97.09;100736.25;5197671;28;20041;-82
2021/04/10 09:45:45;;;;;;;29.92;8.77;;;;;;;7.12;97.78;100737.84;5180052;28;20033;-83
2021/04/10 09:48:19;;;;;;;27.33;9.10;;;;;;;7.09;96.84;100735.31;5200694;28;20025;-80
2021/04/10 09:50:49;;;;;;;28.50;8.23;;;;;;;7.32;97.77;100744.38;5203223;28;20269;-82
2021/04/10 09:53:24;;;;;;;25.53;8.80;;;;;;;7.08;97.81;100738.78;5201974;28;20053;-79
2021/04/10 09:55:59;;;;;;;25.52;8.55;;;;;;;7.17;97.54;100740.38;5182696;28;20280;-82
2021/04/10 09:58:35;;;;;;;17.73;8.40;;;;;;;7.14;96.95;100738.66;5190841;28;20087;-83
2021/04/10 10:01:11;;;;;;;28.65;9.43;;;;;;;7.22;97.27;100735.94;5198999;28;20052;-82
2021/04/10 10:03:42;;;;;;;23.50;8.93;;;;;;;7.30;95.91;100740.09;5194297;28;20040;-82
2021/04/10 10:06:22;;;;;;;22.65;8.75;;;;;;;7.05;97.04;100732.78;5197527;28;20033;-81
2021/04/10 10:08:53;;;;;;;23.67;8.75;;;;;;;7.30;96.67;100740.97;5197664;28;20029;-81
2021/04/10 10:11:24;;;;;;;21.02;8.88;;;;;;;7.25;96.65;100741.09;5198286;28;20655;-82
2021/04/10 10:13:55;;;;;;;26.70;8.90;;;;;;;7.45;94.14;100734.59;5178503;28;20077;-81
2021/04/10 10:16:28;;;;;;;24.35;8.95;;;;;;;7.48;94.00;100744.91;5197213;28;20030;-81
2021/04/10 10:19:00;;;;;;;22.67;8.10;;;;;;;7.62;93.99;100737.69;5194454;28;20187;-81
2021/04/10 10:21:31;;;;;;;22.92;8.85;;;;;;;7.82;92.65;100738.13;5196019;28;20487;-82
2021/04/10 10:24:01;;;;;;;22.50;7.97;;;;;;;7.75;94.46;100729.63;5196018;28;20040;-81
2021/04/10 10:26:36;;;;;;;20.90;7.68;;;;;;;7.85;93.98;100733.72;5181726;28;20040;-83
2021/04/10 10:29:09;;;;;;;21.90;8.27;;;;;;;7.94;91.98;100736.13;5199704;28;20048;-81
2021/04/10 10:31:43;;;;;;;18.65;7.50;;;;;;;8.13;91.81;100723.53;5197091;28;20655;-82
2021/04/10 10:34:17;;;;;;;19.90;7.00;;;;;;;8.25;92.00;100720.69;5192795;28;20187;-82
2021/04/10 10:36:49;;;;;;;18.27;7.63;;;;;;;7.86;91.19;100725.00;5193475;28;20701;-81
2021/04/10 10:39:35;;;;;;;16.35;7.15;;;;;;;7.81;91.21;100719.06;5176229;28;20499;-82
2021/04/10 10:42:05;;;;;;;20.65;7.15;;;;;;;8.42;89.97;100718.53;5177261;28;20112;-80
2021/04/10 10:44:39;;;;;;;18.50;7.00;;;;;;;8.89;88.44;100715.56;5192868;28;20090;-82
2021/04/10 10:47:09;;;;;;;17.33;7.57;;;;;;;8.52;91.73;100720.84;5192775;28;20787;-82
2021/04/10 10:49:39;;;;;;;17.70;7.45;;;;;;;8.32;91.59;100720.50;5193904;28;20045;-81
2021/04/10 10:52:17;;;;;;;20.00;7.57;;;;;;;8.63;90.96;100729.28;5193149;28;20025;-82
2021/04/10 10:54:48;;;;;;;20.98;6.93;;;;;;;8.50;86.86;100722.66;5191953;28;20488;-81
2021/04/10 10:57:19;;;;;;;18.38;7.07;;;;;;;8.48;90.04;100732.25;5192689;28;20115;-82
2021/04/10 10:59:49;;;;;;;18.85;6.93;;;;;;;8.38;90.54;100733.34;5190798;28;20113;-82
2021/04/10 11:02:19;;;;;;;21.85;7.18;;;;;;;8.09;90.34;100732.31;5189575;28;20040;-82
2021/04/10 11:04:52;;;;;;;20.13;7.22;;;;;;;8.01;91.37;100737.69;5189486;28;20044;-82
2021/04/10 11:07:24;;;;;;;18.75;7.53;;;;;;;7.91;91.04;100741.38;5190798;28;20033;-81
2021/04/10 11:09:56;;;;;;;15.55;7.18;;;;;;;7.91;92.61;100738.75;5191076;28;20033;-81
2021/04/10 11:12:27;;;;;;;17.88;7.80;;;;;;;8.02;90.67;100728.16;5193306;28;20021;-81
2021/04/10 11:14:59;;;;;;;19.50;7.43;;;;;;;8.05;91.57;100734.13;5191504;28;20283;-81
2021/04/10 11:17:31;;;;;;;21.55;7.68;;;;;;;8.14;91.23;100733.91;5193170;28;20029;-81
2021/04/10 11:20:28;;;;;;;18.60;7.47;;;;;;;7.97;92.89;100728.25;5192765;28;20605;-82
2021/04/10 11:23:06;;;;;;;18.88;7.30;;;;;;;7.97;90.98;100729.97;5193965;28;20163;-83
2021/04/10 11:25:47;;;;;;;18.10;6.95;;;;;;;7.99;90.19;100723.84;5193129;28;20029;-82
2021/04/10 11:28:27;;;;;;;19.63;7.40;;;;;;;8.02;90.76;100734.19;5193844;28;20063;-81
2021/04/10 11:31:05;;;;;;;18.75;7.05;;;;;;;8.10;91.33;100737.50;5194635;28;20029;-82
2021/04/10 11:33:36;;;;;;;19.40;6.90;;;;;;;8.00;90.54;100741.19;5192365;28;20048;-80
2021/04/10 11:36:07;;;;;;;19.30;7.00;;;;;;;8.02;90.48;100728.16;5192169;28;20128;-82
2021/04/10 11:39:03;;;;;;;18.38;6.88;;;;;;;8.16;92.15;100729.53;5194444;28;20090;-80
2021/04/10 11:41:47;;;;;;;26.50;7.82;;;;;;;7.95;92.12;100727.44;5193062;28;20061;-80
2021/04/10 11:44:18;;;;;;;23.75;7.32;;;;;;;8.28;90.63;100720.59;5191872;28;20454;-81
2021/04/10 11:46:58;;;;;;;17.20;6.13;;;;;;;8.08;89.85;100728.84;5190023;28;20102;-83